sensor_id;sensor_type;location;lat;lon;timestamp;P1;durP1;ratioP1;P2;durP2;ratioP2
69485;SDS011;56677;51.710;5.366;2023-04-25T03:44:55;4.45;;;1.88;;
69485;SDS011;56677;51.710;5.366;2023-04-25T03:47:20;3.47;;;1.97;;
69485;SDS011;56677;51.710;5.366;2023-04-25T03:49:45;3.40;;;1.50;;
69485;SDS011;56677;51.710;5.366;2023-04-25T03:52:11;4.23;;;2.10;;
69485;SDS011;56677;51.710;5.366;2023-04-25T03:54:36;7.00;;;1.80;;
69485;SDS011;56677;51.710;5.366;2023-04-25T03:57:01;5.45;;;1.98;;
69485;SDS011;56677;51.710;5.366;2023-04-25T03:59:26;3.57;;;1.40;;
69485;SDS011;56677;51.710;5.366;2023-04-25T04:01:51;4.05;;;1.50;;
69485;SDS011;56677;51.710;5.366;2023-04-25T04:04:17;3.50;;;1.40;;
69485;SDS011;56677;51.710;5.366;2023-04-25T04:06:42;3.97;;;1.73;;
69485;SDS011;56677;51.710;5.366;2023-04-25T04:09:07;4.15;;;1.75;;
69485;SDS011;56677;51.710;5.366;2023-04-25T04:11:32;6.40;;;1.53;;
69485;SDS011;56677;51.710;5.366;2023-04-25T04:13:57;3.80;;;1.42;;
69485;SDS011;56677;51.710;5.366;2023-04-25T04:16:22;3.13;;;1.53;;
69485;SDS011;56677;51.710;5.366;2023-04-25T04:18:47;3.50;;;1.90;;
69485;SDS011;56677;51.710;5.366;2023-04-25T04:21:12;4.82;;;1.80;;
69485;SDS011;56677;51.710;5.366;2023-04-25T04:23:38;4.15;;;1.60;;
69485;SDS011;56677;51.710;5.366;2023-04-25T04:26:03;5.70;;;1.97;;
69485;SDS011;56677;51.710;5.366;2023-04-25T04:28:28;4.82;;;1.83;;
69485;SDS011;56677;51.710;5.366;2023-04-25T04:30:53;3.78;;;1.40;;
69485;SDS011;56677;51.710;5.366;2023-04-25T04:33:18;2.70;;;1.23;;
69485;SDS011;56677;51.710;5.366;2023-04-25T04:35:43;4.70;;;1.70;;
69485;SDS011;56677;51.710;5.366;2023-04-25T04:38:08;2.70;;;1.60;;
69485;SDS011;56677;51.710;5.366;2023-04-25T04:40:34;2.70;;;1.20;;
69485;SDS011;56677;51.710;5.366;2023-04-25T04:42:59;3.13;;;1.73;;
69485;SDS011;56677;51.710;5.366;2023-04-25T04:45:24;3.65;;;1.60;;
69485;SDS011;56677;51.710;5.366;2023-04-25T04:47:49;5.32;;;1.40;;
69485;SDS011;56677;51.710;5.366;2023-04-25T04:50:15;4.27;;;1.70;;
69485;SDS011;56677;51.710;5.366;2023-04-25T04:52:40;5.27;;;1.53;;
69485;SDS011;56677;51.710;5.366;2023-04-25T04:55:05;3.20;;;1.42;;
69485;SDS011;56677;51.710;5.366;2023-04-25T04:57:31;4.43;;;1.37;;
69485;SDS011;56677;51.710;5.366;2023-04-25T04:59:56;6.78;;;2.03;;
69485;SDS011;56677;51.710;5.366;2023-04-25T05:02:21;4.43;;;1.83;;
69485;SDS011;56677;51.710;5.366;2023-04-25T05:04:46;4.63;;;1.60;;
69485;SDS011;56677;51.710;5.366;2023-04-25T05:07:11;2.97;;;1.42;;
69485;SDS011;56677;51.710;5.366;2023-04-25T05:09:36;3.60;;;1.70;;
69485;SDS011;56677;51.710;5.366;2023-04-25T05:12:02;3.90;;;1.57;;
69485;SDS011;56677;51.710;5.366;2023-04-25T05:14:27;3.80;;;1.60;;
69485;SDS011;56677;51.710;5.366;2023-04-25T05:16:52;3.65;;;1.52;;
69485;SDS011;56677;51.710;5.366;2023-04-25T05:19:17;4.32;;;1.58;;
69485;SDS011;56677;51.710;5.366;2023-04-25T05:21:42;4.03;;;1.50;;
69485;SDS011;56677;51.710;5.366;2023-04-25T05:24:07;2.80;;;1.65;;
69485;SDS011;56677;51.710;5.366;2023-04-25T05:26:32;2.72;;;1.20;;
69485;SDS011;56677;51.710;5.366;2023-04-25T05:28:58;3.87;;;1.67;;
69485;SDS011;56677;51.710;5.366;2023-04-25T05:31:23;3.30;;;1.70;;
69485;SDS011;56677;51.710;5.366;2023-04-25T05:33:48;4.53;;;1.53;;
69485;SDS011;56677;51.710;5.366;2023-04-25T05:36:13;2.63;;;1.27;;
69485;SDS011;56677;51.710;5.366;2023-04-25T05:38:38;3.73;;;1.20;;
69485;SDS011;56677;51.710;5.366;2023-04-25T05:41:03;2.77;;;1.40;;
69485;SDS011;56677;51.710;5.366;2023-04-25T05:43:28;3.22;;;1.30;;
69485;SDS011;56677;51.710;5.366;2023-04-25T05:45:53;3.43;;;1.40;;
69485;SDS011;56677;51.710;5.366;2023-04-25T05:48:19;3.88;;;1.85;;
69485;SDS011;56677;51.710;5.366;2023-04-25T05:50:44;3.97;;;1.55;;
69485;SDS011;56677;51.710;5.366;2023-04-25T05:53:09;4.47;;;1.63;;
69485;SDS011;56677;51.710;5.366;2023-04-25T05:55:34;2.70;;;1.60;;
69485;SDS011;56677;51.710;5.366;2023-04-25T05:57:59;3.15;;;1.40;;
69485;SDS011;56677;51.710;5.366;2023-04-25T06:00:24;3.58;;;1.48;;
69485;SDS011;56677;51.710;5.366;2023-04-25T06:02:49;4.47;;;1.80;;
69485;SDS011;56677;51.710;5.366;2023-04-25T06:05:15;3.83;;;1.70;;
69485;SDS011;56677;51.710;5.366;2023-04-25T06:07:40;4.65;;;1.75;;
69485;SDS011;56677;51.710;5.366;2023-04-25T06:10:05;5.93;;;1.58;;
69485;SDS011;56677;51.710;5.366;2023-04-25T06:12:30;6.33;;;1.80;;
69485;SDS011;56677;51.710;5.366;2023-04-25T06:14:56;4.22;;;1.60;;
69485;SDS011;56677;51.710;5.366;2023-04-25T06:17:21;7.57;;;1.83;;
69485;SDS011;56677;51.710;5.366;2023-04-25T06:19:46;3.85;;;1.40;;
69485;SDS011;56677;51.710;5.366;2023-04-25T06:22:11;4.05;;;1.52;;
69485;SDS011;56677;51.710;5.366;2023-04-25T06:24:36;4.60;;;1.55;;
69485;SDS011;56677;51.710;5.366;2023-04-25T06:27:01;2.58;;;1.30;;
69485;SDS011;56677;51.710;5.366;2023-04-25T06:29:26;5.43;;;1.50;;
69485;SDS011;56677;51.710;5.366;2023-04-25T06:31:51;5.70;;;1.27;;
69485;SDS011;56677;51.710;5.366;2023-04-25T06:34:17;3.30;;;1.50;;
69485;SDS011;56677;51.710;5.366;2023-04-25T06:36:42;5.90;;;1.38;;
69485;SDS011;56677;51.710;5.366;2023-04-25T06:39:07;3.80;;;1.67;;
69485;SDS011;56677;51.710;5.366;2023-04-25T06:41:32;6.80;;;1.40;;
69485;SDS011;56677;51.710;5.366;2023-04-25T06:43:57;4.13;;;1.40;;
69485;SDS011;56677;51.710;5.366;2023-04-25T06:46:22;6.72;;;1.55;;
69485;SDS011;56677;51.710;5.366;2023-04-25T06:48:47;5.60;;;1.70;;
69485;SDS011;56677;51.710;5.366;2023-04-25T06:51:12;5.55;;;1.80;;
69485;SDS011;56677;51.710;5.366;2023-04-25T06:53:38;4.53;;;1.50;;
69485;SDS011;56677;51.710;5.366;2023-04-25T06:56:03;3.05;;;1.55;;
69485;SDS011;56677;51.710;5.366;2023-04-25T06:58:28;4.30;;;1.47;;
69485;SDS011;56677;51.710;5.366;2023-04-25T07:00:53;6.72;;;2.13;;
69485;SDS011;56677;51.710;5.366;2023-04-25T07:03:18;7.30;;;1.80;;
69485;SDS011;56677;51.710;5.366;2023-04-25T07:05:44;4.85;;;1.58;;
69485;SDS011;56677;51.710;5.366;2023-04-25T07:08:09;9.18;;;1.60;;
69485;SDS011;56677;51.710;5.366;2023-04-25T07:10:34;4.83;;;1.63;;
69485;SDS011;56677;51.710;5.366;2023-04-25T07:12:59;3.88;;;1.52;;
69485;SDS011;56677;51.710;5.366;2023-04-25T07:15:24;7.78;;;1.60;;
69485;SDS011;56677;51.710;5.366;2023-04-25T07:17:49;6.57;;;1.98;;
69485;SDS011;56677;51.710;5.366;2023-04-25T07:20:14;4.18;;;1.60;;
69485;SDS011;56677;51.710;5.366;2023-04-25T07:22:39;4.85;;;1.58;;
69485;SDS011;56677;51.710;5.366;2023-04-25T07:25:05;7.45;;;1.60;;
69485;SDS011;56677;51.710;5.366;2023-04-25T07:27:30;6.17;;;1.97;;
69485;SDS011;56677;51.710;5.366;2023-04-25T07:29:55;4.20;;;1.67;;
69485;SDS011;56677;51.710;5.366;2023-04-25T07:32:20;3.77;;;1.47;;
69485;SDS011;56677;51.710;5.366;2023-04-25T07:34:45;3.10;;;1.13;;
69485;SDS011;56677;51.710;5.366;2023-04-25T07:37:10;8.50;;;1.67;;
69485;SDS011;56677;51.710;5.366;2023-04-25T07:39:36;4.95;;;1.50;;
69485;SDS011;56677;51.710;5.366;2023-04-25T07:42:01;3.80;;;1.63;;
69485;SDS011;56677;51.710;5.366;2023-04-25T07:44:26;5.13;;;1.80;;
69485;SDS011;56677;51.710;5.366;2023-04-25T07:46:51;7.88;;;1.42;;
69485;SDS011;56677;51.710;5.366;2023-04-25T07:49:16;5.68;;;1.70;;
69485;SDS011;56677;51.710;5.366;2023-04-25T07:51:41;6.20;;;1.65;;
69485;SDS011;56677;51.710;5.366;2023-04-25T07:54:06;11.07;;;2.07;;
69485;SDS011;56677;51.710;5.366;2023-04-25T07:56:32;7.35;;;1.50;;
69485;SDS011;56677;51.710;5.366;2023-04-25T07:58:57;7.23;;;1.37;;
69485;SDS011;56677;51.710;5.366;2023-04-25T08:01:22;8.68;;;1.98;;
69485;SDS011;56677;51.710;5.366;2023-04-25T08:03:47;3.65;;;1.25;;
69485;SDS011;56677;51.710;5.366;2023-04-25T08:06:12;7.47;;;1.57;;
69485;SDS011;56677;51.710;5.366;2023-04-25T08:08:37;5.43;;;1.40;;
69485;SDS011;56677;51.710;5.366;2023-04-25T08:11:02;4.93;;;1.60;;
69485;SDS011;56677;51.710;5.366;2023-04-25T08:13:28;7.43;;;1.57;;
69485;SDS011;56677;51.710;5.366;2023-04-25T08:15:53;5.18;;;1.30;;
69485;SDS011;56677;51.710;5.366;2023-04-25T08:18:18;5.57;;;1.67;;
69485;SDS011;56677;51.710;5.366;2023-04-25T08:20:43;5.13;;;1.63;;
69485;SDS011;56677;51.710;5.366;2023-04-25T08:23:08;3.05;;;1.30;;
69485;SDS011;56677;51.710;5.366;2023-04-25T08:25:33;5.10;;;1.48;;
69485;SDS011;56677;51.710;5.366;2023-04-25T08:27:58;5.00;;;1.30;;
69485;SDS011;56677;51.710;5.366;2023-04-25T08:30:24;4.82;;;1.60;;
69485;SDS011;56677;51.710;5.366;2023-04-25T08:32:49;5.20;;;1.30;;
69485;SDS011;56677;51.710;5.366;2023-04-25T08:35:14;5.00;;;1.67;;
69485;SDS011;56677;51.710;5.366;2023-04-25T08:37:39;7.80;;;1.50;;
69485;SDS011;56677;51.710;5.366;2023-04-25T08:40:04;5.05;;;1.52;;
69485;SDS011;56677;51.710;5.366;2023-04-25T08:42:30;4.00;;;1.50;;
69485;SDS011;56677;51.710;5.366;2023-04-25T08:44:56;3.80;;;1.35;;
69485;SDS011;56677;51.710;5.366;2023-04-25T08:47:22;3.35;;;1.45;;
69485;SDS011;56677;51.710;5.366;2023-04-25T08:49:47;4.67;;;2.10;;
69485;SDS011;56677;51.710;5.366;2023-04-25T08:52:13;7.03;;;1.83;;
69485;SDS011;56677;51.710;5.366;2023-04-25T08:54:41;6.60;;;1.23;;
69485;SDS011;56677;51.710;5.366;2023-04-25T08:57:07;7.03;;;1.55;;
69485;SDS011;56677;51.710;5.366;2023-04-25T08:59:32;5.50;;;2.03;;
69485;SDS011;56677;51.710;5.366;2023-04-25T09:01:57;4.03;;;1.40;;
69485;SDS011;56677;51.710;5.366;2023-04-25T09:04:22;3.05;;;1.40;;
69485;SDS011;56677;51.710;5.366;2023-04-25T09:06:48;4.50;;;1.33;;
69485;SDS011;56677;51.710;5.366;2023-04-25T09:09:13;5.00;;;1.50;;
69485;SDS011;56677;51.710;5.366;2023-04-25T09:11:38;4.27;;;1.60;;
69485;SDS011;56677;51.710;5.366;2023-04-25T09:16:56;3.67;;;1.15;;
69485;SDS011;56677;51.710;5.366;2023-04-25T09:19:22;6.13;;;1.40;;
69485;SDS011;56677;51.710;5.366;2023-04-25T09:21:53;5.70;;;2.03;;
69485;SDS011;56677;51.710;5.366;2023-04-25T09:27:06;5.65;;;1.27;;
69485;SDS011;56677;51.710;5.366;2023-04-25T09:29:32;3.97;;;1.50;;
69485;SDS011;56677;51.710;5.366;2023-04-25T09:32:10;7.73;;;1.40;;
69485;SDS011;56677;51.710;5.366;2023-04-25T09:34:39;7.28;;;1.58;;
69485;SDS011;56677;51.710;5.366;2023-04-25T09:37:04;4.82;;;1.13;;
69485;SDS011;56677;51.710;5.366;2023-04-25T09:39:29;9.88;;;1.38;;
69485;SDS011;56677;51.710;5.366;2023-04-25T09:41:54;3.33;;;1.13;;
69485;SDS011;56677;51.710;5.366;2023-04-25T09:44:23;5.87;;;1.40;;
69485;SDS011;56677;51.710;5.366;2023-04-25T09:46:49;6.10;;;1.60;;
69485;SDS011;56677;51.710;5.366;2023-04-25T09:49:14;5.97;;;1.23;;
69485;SDS011;56677;51.710;5.366;2023-04-25T09:51:39;9.50;;;1.43;;
69485;SDS011;56677;51.710;5.366;2023-04-25T09:54:04;4.65;;;1.38;;
69485;SDS011;56677;51.710;5.366;2023-04-25T09:56:29;3.83;;;1.30;;
69485;SDS011;56677;51.710;5.366;2023-04-25T09:58:56;8.67;;;1.53;;
69485;SDS011;56677;51.710;5.366;2023-04-25T10:01:21;5.60;;;1.10;;
69485;SDS011;56677;51.710;5.366;2023-04-25T10:03:48;5.15;;;1.20;;
69485;SDS011;56677;51.710;5.366;2023-04-25T10:06:18;5.43;;;1.20;;
69485;SDS011;56677;51.710;5.366;2023-04-25T10:08:43;10.60;;;1.65;;
69485;SDS011;56677;51.710;5.366;2023-04-25T10:11:09;7.60;;;1.60;;
69485;SDS011;56677;51.710;5.366;2023-04-25T10:13:35;5.50;;;1.57;;
69485;SDS011;56677;51.710;5.366;2023-04-25T10:16:01;5.25;;;1.50;;
69485;SDS011;56677;51.710;5.366;2023-04-25T10:18:27;5.87;;;1.37;;
69485;SDS011;56677;51.710;5.366;2023-04-25T10:20:53;7.45;;;1.50;;
69485;SDS011;56677;51.710;5.366;2023-04-25T10:23:19;5.55;;;1.50;;
69485;SDS011;56677;51.710;5.366;2023-04-25T10:25:44;3.20;;;1.43;;
69485;SDS011;56677;51.710;5.366;2023-04-25T10:28:10;4.80;;;1.38;;
69485;SDS011;56677;51.710;5.366;2023-04-25T10:30:35;6.78;;;1.50;;
69485;SDS011;56677;51.710;5.366;2023-04-25T10:33:00;6.73;;;1.50;;
69485;SDS011;56677;51.710;5.366;2023-04-25T10:35:26;5.13;;;1.67;;
69485;SDS011;56677;51.710;5.366;2023-04-25T10:38:09;9.90;;;1.53;;
69485;SDS011;56677;51.710;5.366;2023-04-25T10:40:34;5.32;;;1.30;;
69485;SDS011;56677;51.710;5.366;2023-04-25T10:45:52;9.88;;;1.50;;
69485;SDS011;56677;51.710;5.366;2023-04-25T10:48:27;5.05;;;1.33;;
69485;SDS011;56677;51.710;5.366;2023-04-25T10:51:11;5.82;;;1.60;;
69485;SDS011;56677;51.710;5.366;2023-04-25T10:53:36;6.95;;;1.70;;
69485;SDS011;56677;51.710;5.366;2023-04-25T10:56:12;6.33;;;1.57;;
69485;SDS011;56677;51.710;5.366;2023-04-25T10:58:41;7.07;;;1.25;;
69485;SDS011;56677;51.710;5.366;2023-04-25T11:01:07;9.77;;;1.50;;
69485;SDS011;56677;51.710;5.366;2023-04-25T11:03:32;4.90;;;1.50;;
69485;SDS011;56677;51.710;5.366;2023-04-25T11:05:57;3.92;;;1.38;;
69485;SDS011;56677;51.710;5.366;2023-04-25T11:08:28;3.88;;;1.27;;
69485;SDS011;56677;51.710;5.366;2023-04-25T11:10:57;5.90;;;1.38;;
69485;SDS011;56677;51.710;5.366;2023-04-25T11:13:28;4.27;;;1.50;;
69485;SDS011;56677;51.710;5.366;2023-04-25T11:15:53;9.07;;;1.73;;
69485;SDS011;56677;51.710;5.366;2023-04-25T11:18:18;4.97;;;1.27;;
69485;SDS011;56677;51.710;5.366;2023-04-25T11:20:44;4.15;;;1.30;;
69485;SDS011;56677;51.710;5.366;2023-04-25T11:23:09;4.00;;;1.38;;
69485;SDS011;56677;51.710;5.366;2023-04-25T11:25:34;7.45;;;1.50;;
69485;SDS011;56677;51.710;5.366;2023-04-25T11:28:00;7.37;;;1.27;;
69485;SDS011;56677;51.710;5.366;2023-04-25T11:30:25;2.95;;;1.17;;
69485;SDS011;56677;51.710;5.366;2023-04-25T11:32:51;6.20;;;1.40;;
69485;SDS011;56677;51.710;5.366;2023-04-25T11:35:16;5.90;;;1.10;;
69485;SDS011;56677;51.710;5.366;2023-04-25T11:37:44;5.47;;;1.48;;
69485;SDS011;56677;51.710;5.366;2023-04-25T11:40:10;5.30;;;1.33;;
69485;SDS011;56677;51.710;5.366;2023-04-25T11:42:45;6.23;;;1.67;;
69485;SDS011;56677;51.710;5.366;2023-04-25T11:45:10;6.90;;;1.50;;
69485;SDS011;56677;51.710;5.366;2023-04-25T11:47:36;5.50;;;1.57;;
69485;SDS011;56677;51.710;5.366;2023-04-25T11:50:02;6.50;;;1.23;;
69485;SDS011;56677;51.710;5.366;2023-04-25T11:52:37;4.73;;;1.40;;
69485;SDS011;56677;51.710;5.366;2023-04-25T11:55:09;2.22;;;1.00;;
69485;SDS011;56677;51.710;5.366;2023-04-25T11:57:34;5.32;;;1.40;;
69485;SDS011;56677;51.710;5.366;2023-04-25T12:00:08;4.40;;;1.30;;
69485;SDS011;56677;51.710;5.366;2023-04-25T12:02:34;5.57;;;1.25;;
69485;SDS011;56677;51.710;5.366;2023-04-25T12:04:59;2.80;;;1.15;;
69485;SDS011;56677;51.710;5.366;2023-04-25T12:07:28;4.28;;;1.05;;
69485;SDS011;56677;51.710;5.366;2023-04-25T12:09:56;4.03;;;1.33;;
69485;SDS011;56677;51.710;5.366;2023-04-25T12:12:21;5.53;;;1.30;;
69485;SDS011;56677;51.710;5.366;2023-04-25T12:14:47;4.15;;;1.35;;
69485;SDS011;56677;51.710;5.366;2023-04-25T12:17:12;4.87;;;1.80;;
69485;SDS011;56677;51.710;5.366;2023-04-25T12:19:37;3.85;;;1.20;;
69485;SDS011;56677;51.710;5.366;2023-04-25T12:22:03;4.13;;;1.47;;
69485;SDS011;56677;51.710;5.366;2023-04-25T12:24:28;4.20;;;1.27;;
69485;SDS011;56677;51.710;5.366;2023-04-25T12:27:01;5.35;;;1.50;;
69485;SDS011;56677;51.710;5.366;2023-04-25T12:29:27;4.70;;;1.25;;
69485;SDS011;56677;51.710;5.366;2023-04-25T12:31:53;5.67;;;1.50;;
69485;SDS011;56677;51.710;5.366;2023-04-25T12:34:20;8.23;;;1.30;;
69485;SDS011;56677;51.710;5.366;2023-04-25T12:36:46;6.28;;;1.40;;
69485;SDS011;56677;51.710;5.366;2023-04-25T12:39:17;8.77;;;1.60;;
69485;SDS011;56677;51.710;5.366;2023-04-25T12:41:43;2.95;;;1.40;;
69485;SDS011;56677;51.710;5.366;2023-04-25T12:44:08;4.43;;;1.07;;
69485;SDS011;56677;51.710;5.366;2023-04-25T12:46:33;4.03;;;1.15;;
69485;SDS011;56677;51.710;5.366;2023-04-25T12:48:58;5.20;;;1.43;;
69485;SDS011;56677;51.710;5.366;2023-04-25T12:51:23;8.55;;;1.52;;
69485;SDS011;56677;51.710;5.366;2023-04-25T12:53:49;4.47;;;1.52;;
69485;SDS011;56677;51.710;5.366;2023-04-25T12:56:14;3.47;;;0.93;;
69485;SDS011;56677;51.710;5.366;2023-04-25T12:58:39;4.40;;;1.30;;
69485;SDS011;56677;51.710;5.366;2023-04-25T13:01:04;5.38;;;1.52;;
69485;SDS011;56677;51.710;5.366;2023-04-25T13:03:29;6.20;;;1.67;;
69485;SDS011;56677;51.710;5.366;2023-04-25T13:05:55;9.00;;;1.60;;
69485;SDS011;56677;51.710;5.366;2023-04-25T13:08:20;4.47;;;1.70;;
69485;SDS011;56677;51.710;5.366;2023-04-25T13:10:45;6.05;;;1.20;;
69485;SDS011;56677;51.710;5.366;2023-04-25T13:13:10;6.80;;;1.50;;
69485;SDS011;56677;51.710;5.366;2023-04-25T13:15:35;6.43;;;1.70;;
69485;SDS011;56677;51.710;5.366;2023-04-25T13:18:00;7.33;;;1.33;;
69485;SDS011;56677;51.710;5.366;2023-04-25T13:20:26;7.27;;;1.47;;
69485;SDS011;56677;51.710;5.366;2023-04-25T13:22:51;7.35;;;1.45;;
69485;SDS011;56677;51.710;5.366;2023-04-25T13:25:16;2.33;;;1.08;;
69485;SDS011;56677;51.710;5.366;2023-04-25T13:27:41;5.25;;;1.40;;
69485;SDS011;56677;51.710;5.366;2023-04-25T13:30:06;4.47;;;1.67;;
69485;SDS011;56677;51.710;5.366;2023-04-25T13:32:31;8.30;;;1.70;;
69485;SDS011;56677;51.710;5.366;2023-04-25T13:34:57;6.90;;;1.40;;
69485;SDS011;56677;51.710;5.366;2023-04-25T13:37:22;5.93;;;1.90;;
69485;SDS011;56677;51.710;5.366;2023-04-25T13:39:47;4.45;;;1.42;;
69485;SDS011;56677;51.710;5.366;2023-04-25T13:42:12;11.43;;;1.30;;
69485;SDS011;56677;51.710;5.366;2023-04-25T13:44:37;6.90;;;1.90;;
69485;SDS011;56677;51.710;5.366;2023-04-25T13:47:02;11.25;;;1.50;;
69485;SDS011;56677;51.710;5.366;2023-04-25T13:49:27;5.23;;;1.70;;
69485;SDS011;56677;51.710;5.366;2023-04-25T13:51:52;5.07;;;1.50;;
69485;SDS011;56677;51.710;5.366;2023-04-25T13:54:18;3.30;;;1.38;;
69485;SDS011;56677;51.710;5.366;2023-04-25T13:56:43;6.22;;;1.45;;
69485;SDS011;56677;51.710;5.366;2023-04-25T13:59:08;4.88;;;1.50;;
69485;SDS011;56677;51.710;5.366;2023-04-25T14:01:33;9.48;;;1.92;;
69485;SDS011;56677;51.710;5.366;2023-04-25T14:03:58;6.72;;;1.23;;
69485;SDS011;56677;51.710;5.366;2023-04-25T14:06:23;8.07;;;2.23;;
69485;SDS011;56677;51.710;5.366;2023-04-25T14:08:49;5.10;;;1.50;;
69485;SDS011;56677;51.710;5.366;2023-04-25T14:11:14;5.40;;;1.60;;
69485;SDS011;56677;51.710;5.366;2023-04-25T14:13:39;5.20;;;1.35;;
69485;SDS011;56677;51.710;5.366;2023-04-25T14:16:04;4.80;;;1.30;;
69485;SDS011;56677;51.710;5.366;2023-04-25T14:18:30;4.63;;;1.60;;
69485;SDS011;56677;51.710;5.366;2023-04-25T14:20:55;4.80;;;1.50;;
69485;SDS011;56677;51.710;5.366;2023-04-25T14:23:20;3.13;;;1.58;;
69485;SDS011;56677;51.710;5.366;2023-04-25T14:25:45;5.65;;;1.25;;
69485;SDS011;56677;51.710;5.366;2023-04-25T14:28:10;4.70;;;1.40;;
69485;SDS011;56677;51.710;5.366;2023-04-25T14:30:35;5.20;;;1.50;;
69485;SDS011;56677;51.710;5.366;2023-04-25T14:33:00;3.00;;;1.20;;
69485;SDS011;56677;51.710;5.366;2023-04-25T14:35:25;5.00;;;1.30;;
69485;SDS011;56677;51.710;5.366;2023-04-25T14:37:50;5.07;;;1.50;;
69485;SDS011;56677;51.710;5.366;2023-04-25T14:40:16;5.28;;;1.25;;
69485;SDS011;56677;51.710;5.366;2023-04-25T14:42:41;6.50;;;1.20;;
69485;SDS011;56677;51.710;5.366;2023-04-25T14:45:06;5.97;;;1.70;;
69485;SDS011;56677;51.710;5.366;2023-04-25T14:47:32;4.13;;;1.27;;
69485;SDS011;56677;51.710;5.366;2023-04-25T14:49:57;3.92;;;1.17;;
69485;SDS011;56677;51.710;5.366;2023-04-25T14:52:22;7.40;;;1.77;;
69485;SDS011;56677;51.710;5.366;2023-04-25T14:54:47;6.53;;;1.87;;
69485;SDS011;56677;51.710;5.366;2023-04-25T14:57:13;2.55;;;1.38;;
69485;SDS011;56677;51.710;5.366;2023-04-25T14:59:38;5.63;;;1.70;;
69485;SDS011;56677;51.710;5.366;2023-04-25T15:02:03;2.90;;;1.35;;
69485;SDS011;56677;51.710;5.366;2023-04-25T15:04:28;4.37;;;1.40;;
69485;SDS011;56677;51.710;5.366;2023-04-25T15:06:53;5.80;;;1.58;;
69485;SDS011;56677;51.710;5.366;2023-04-25T15:09:18;5.03;;;1.57;;
69485;SDS011;56677;51.710;5.366;2023-04-25T15:11:43;4.35;;;1.30;;
69485;SDS011;56677;51.710;5.366;2023-04-25T15:14:08;2.25;;;0.90;;
69485;SDS011;56677;51.710;5.366;2023-04-25T15:16:34;3.35;;;1.52;;
69485;SDS011;56677;51.710;5.366;2023-04-25T15:18:59;4.65;;;1.30;;
69485;SDS011;56677;51.710;5.366;2023-04-25T15:21:24;5.23;;;1.60;;
69485;SDS011;56677;51.710;5.366;2023-04-25T15:23:49;2.53;;;0.98;;
69485;SDS011;56677;51.710;5.366;2023-04-25T15:26:14;6.27;;;2.10;;
69485;SDS011;56677;51.710;5.366;2023-04-25T15:28:39;9.85;;;3.80;;
69485;SDS011;56677;51.710;5.366;2023-04-25T15:31:04;15.57;;;4.75;;
69485;SDS011;56677;51.710;5.366;2023-04-25T15:33:29;12.63;;;4.83;;
69485;SDS011;56677;51.710;5.366;2023-04-25T15:35:55;14.10;;;4.70;;
69485;SDS011;56677;51.710;5.366;2023-04-25T15:38:20;15.13;;;5.05;;
69485;SDS011;56677;51.710;5.366;2023-04-25T15:40:45;13.40;;;4.10;;
69485;SDS011;56677;51.710;5.366;2023-04-25T15:43:10;10.40;;;3.75;;
69485;SDS011;56677;51.710;5.366;2023-04-25T15:45:35;10.30;;;3.45;;
69485;SDS011;56677;51.710;5.366;2023-04-25T15:48:00;9.75;;;3.53;;
69485;SDS011;56677;51.710;5.366;2023-04-25T15:50:25;7.88;;;3.22;;
69485;SDS011;56677;51.710;5.366;2023-04-25T15:52:50;9.10;;;2.78;;
69485;SDS011;56677;51.710;5.366;2023-04-25T15:55:17;10.25;;;3.15;;
69485;SDS011;56677;51.710;5.366;2023-04-25T15:57:42;10.93;;;3.07;;
69485;SDS011;56677;51.710;5.366;2023-04-25T16:00:08;10.87;;;3.60;;
69485;SDS011;56677;51.710;5.366;2023-04-25T16:02:33;11.13;;;2.95;;
69485;SDS011;56677;51.710;5.366;2023-04-25T16:04:59;8.15;;;2.63;;
69485;SDS011;56677;51.710;5.366;2023-04-25T16:07:24;6.90;;;3.10;;
69485;SDS011;56677;51.710;5.366;2023-04-25T16:09:49;7.82;;;3.10;;
69485;SDS011;56677;51.710;5.366;2023-04-25T16:12:14;9.85;;;2.88;;
69485;SDS011;56677;51.710;5.366;2023-04-25T16:14:39;7.67;;;2.40;;
69485;SDS011;56677;51.710;5.366;2023-04-25T16:17:04;7.53;;;2.55;;
69485;SDS011;56677;51.710;5.366;2023-04-25T16:19:29;10.77;;;2.43;;
69485;SDS011;56677;51.710;5.366;2023-04-25T16:21:54;8.85;;;3.10;;
69485;SDS011;56677;51.710;5.366;2023-04-25T16:24:20;8.63;;;2.30;;
69485;SDS011;56677;51.710;5.366;2023-04-25T16:26:45;7.68;;;2.50;;
69485;SDS011;56677;51.710;5.366;2023-04-25T16:29:10;7.63;;;2.30;;
69485;SDS011;56677;51.710;5.366;2023-04-25T16:31:35;7.03;;;2.33;;
69485;SDS011;56677;51.710;5.366;2023-04-25T16:34:01;7.78;;;2.58;;
69485;SDS011;56677;51.710;5.366;2023-04-25T16:36:26;7.10;;;2.00;;
69485;SDS011;56677;51.710;5.366;2023-04-25T16:38:51;6.25;;;2.03;;
69485;SDS011;56677;51.710;5.366;2023-04-25T16:41:16;8.85;;;2.47;;
69485;SDS011;56677;51.710;5.366;2023-04-25T16:43:41;6.90;;;1.97;;
69485;SDS011;56677;51.710;5.366;2023-04-25T16:46:07;7.95;;;1.90;;
69485;SDS011;56677;51.710;5.366;2023-04-25T16:48:32;8.55;;;1.80;;
69485;SDS011;56677;51.710;5.366;2023-04-25T16:50:57;7.17;;;2.30;;
69485;SDS011;56677;51.710;5.366;2023-04-25T16:53:22;5.63;;;1.87;;
69485;SDS011;56677;51.710;5.366;2023-04-25T16:55:47;5.70;;;1.90;;
69485;SDS011;56677;51.710;5.366;2023-04-25T16:58:12;5.37;;;1.87;;
69485;SDS011;56677;51.710;5.366;2023-04-25T17:00:38;11.70;;;2.10;;
69485;SDS011;56677;51.710;5.366;2023-04-25T17:03:03;7.93;;;1.90;;
69485;SDS011;56677;51.710;5.366;2023-04-25T17:05:28;7.33;;;1.53;;
69485;SDS011;56677;51.710;5.366;2023-04-25T17:07:53;5.47;;;1.60;;
69485;SDS011;56677;51.710;5.366;2023-04-25T17:10:18;6.07;;;1.73;;
69485;SDS011;56677;51.710;5.366;2023-04-25T17:12:43;8.15;;;1.58;;
69485;SDS011;56677;51.710;5.366;2023-04-25T17:15:09;8.07;;;1.80;;
69485;SDS011;56677;51.710;5.366;2023-04-25T17:17:34;8.90;;;1.70;;
69485;SDS011;56677;51.710;5.366;2023-04-25T17:19:59;6.60;;;1.40;;
69485;SDS011;56677;51.710;5.366;2023-04-25T17:22:24;7.93;;;1.70;;
69485;SDS011;56677;51.710;5.366;2023-04-25T17:24:49;7.03;;;1.60;;
69485;SDS011;56677;51.710;5.366;2023-04-25T17:27:14;8.50;;;2.30;;
69485;SDS011;56677;51.710;5.366;2023-04-25T17:29:40;8.23;;;1.73;;
69485;SDS011;56677;51.710;5.366;2023-04-25T17:32:05;8.45;;;1.65;;
69485;SDS011;56677;51.710;5.366;2023-04-25T17:34:30;5.63;;;1.67;;
69485;SDS011;56677;51.710;5.366;2023-04-25T17:36:55;6.70;;;1.67;;
69485;SDS011;56677;51.710;5.366;2023-04-25T17:39:20;3.63;;;1.45;;
69485;SDS011;56677;51.710;5.366;2023-04-25T17:41:45;4.45;;;1.23;;
69485;SDS011;56677;51.710;5.366;2023-04-25T17:44:10;14.07;;;1.87;;
69485;SDS011;56677;51.710;5.366;2023-04-25T17:46:35;6.32;;;1.58;;
69485;SDS011;56677;51.710;5.366;2023-04-25T17:49:00;4.30;;;1.42;;
69485;SDS011;56677;51.710;5.366;2023-04-25T17:51:26;6.63;;;1.65;;
69485;SDS011;56677;51.710;5.366;2023-04-25T17:53:51;6.15;;;1.65;;
69485;SDS011;56677;51.710;5.366;2023-04-25T17:56:16;4.35;;;1.25;;
69485;SDS011;56677;51.710;5.366;2023-04-25T17:58:42;4.23;;;1.47;;
69485;SDS011;56677;51.710;5.366;2023-04-25T18:01:07;4.37;;;1.70;;
69485;SDS011;56677;51.710;5.366;2023-04-25T18:03:32;5.28;;;2.00;;
69485;SDS011;56677;51.710;5.366;2023-04-25T18:05:57;4.40;;;1.20;;
69485;SDS011;56677;51.710;5.366;2023-04-25T18:08:22;5.60;;;1.50;;
69485;SDS011;56677;51.710;5.366;2023-04-25T18:10:47;5.55;;;1.50;;
69485;SDS011;56677;51.710;5.366;2023-04-25T18:13:12;5.30;;;1.50;;
69485;SDS011;56677;51.710;5.366;2023-04-25T18:15:37;7.38;;;1.73;;
69485;SDS011;56677;51.710;5.366;2023-04-25T18:18:03;5.40;;;1.98;;
69485;SDS011;56677;51.710;5.366;2023-04-25T18:20:28;3.90;;;1.60;;
69485;SDS011;56677;51.710;5.366;2023-04-25T18:22:53;4.10;;;1.60;;
69485;SDS011;56677;51.710;5.366;2023-04-25T18:25:18;6.07;;;1.30;;
69485;SDS011;56677;51.710;5.366;2023-04-25T18:27:43;4.95;;;1.60;;
69485;SDS011;56677;51.710;5.366;2023-04-25T18:30:09;4.72;;;1.63;;